Time;durP1;ratioP1;P1;durP2;ratioP2;P2;SDS_P1;SDS_P2;PMS_P1;PMS_P2;Temp;Humidity;BMP_temperature;BMP_pressure;BME280_temperature;BME280_humidity;BME280_pressure;Samples;Min_cycle;Max_cycle;Signal;HPM_P1;HPM_P2
2022/03/03 00:01:29;;;;;;;8.57;5.78;;;16.30;38.20;15.50;101775.00;;;;5060341;28;20036;-64
2022/03/03 00:04:15;;;;;;;7.85;5.47;;;16.30;38.20;15.50;101780.00;;;;5062742;28;20036;-64
2022/03/03 00:07:01;;;;;;;7.53;5.30;;;16.30;38.30;15.50;101779.00;;;;5064246;28;20555;-64
2022/03/03 00:09:47;;;;;;;10.77;6.15;;;16.30;38.20;15.50;101784.00;;;;5050866;28;20033;-64
2022/03/03 00:12:33;;;;;;;8.25;6.00;;;16.30;38.20;15.50;101788.00;;;;5063778;28;20052;-64
2022/03/03 00:15:19;;;;;;;9.88;5.80;;;16.30;38.20;15.50;101793.00;;;;5066204;28;20326;-64
2022/03/03 00:18:05;;;;;;;9.05;5.97;;;16.30;38.20;15.50;101780.00;;;;5061773;28;20390;-64
2022/03/03 00:20:54;;;;;;;7.97;6.05;;;16.30;38.20;15.40;101783.00;;;;5063685;28;20098;-65
2022/03/03 00:23:40;;;;;;;9.10;6.50;;;16.30;38.20;15.50;101778.00;;;;5058488;28;20039;-64
2022/03/03 00:26:26;;;;;;;10.43;6.15;;;16.30;38.20;15.40;101781.00;;;;5044048;28;20037;-64
2022/03/03 00:29:12;;;;;;;9.20;6.32;;;16.30;38.20;15.40;101779.00;;;;5061188;28;20045;-64
2022/03/03 00:31:59;;;;;;;9.25;6.30;;;16.30;38.20;15.40;101780.00;;;;5058318;28;20058;-64
2022/03/03 00:34:45;;;;;;;8.90;6.15;;;16.30;38.20;15.40;101772.00;;;;5061290;28;20044;-64
2022/03/03 00:37:31;;;;;;;8.32;5.90;;;16.30;38.20;15.40;101766.00;;;;5064244;28;20110;-64
2022/03/03 00:40:17;;;;;;;8.77;6.55;;;16.30;38.20;15.40;101771.00;;;;5056660;28;20044;-64
2022/03/03 00:43:04;;;;;;;7.18;5.85;;;16.30;38.20;15.40;101773.00;;;;5060490;28;20156;-64
2022/03/03 00:45:50;;;;;;;8.68;5.85;;;16.30;38.20;15.40;101768.00;;;;5057329;28;20125;-64
2022/03/03 00:48:36;;;;;;;9.18;6.10;;;16.30;38.20;15.40;101766.00;;;;5063048;28;20036;-64
2022/03/03 00:51:22;;;;;;;9.73;6.25;;;16.30;38.20;15.40;101756.00;;;;5050470;28;20064;-64
2022/03/03 00:54:08;;;;;;;8.55;6.03;;;16.30;38.20;15.40;101757.00;;;;5058621;28;20051;-64
2022/03/03 00:56:55;;;;;;;9.20;5.68;;;16.20;38.10;15.40;101750.00;;;;5057932;28;20045;-64
2022/03/03 00:59:41;;;;;;;8.45;5.88;;;16.30;38.20;15.40;101745.00;;;;5058844;28;20044;-64
2022/03/03 01:02:27;;;;;;;8.13;6.13;;;16.30;38.20;15.30;101742.00;;;;5055503;28;20479;-64
2022/03/03 01:05:13;;;;;;;8.57;6.22;;;16.20;38.90;15.30;101744.00;;;;5057208;28;20041;-64
2022/03/03 01:07:59;;;;;;;9.35;6.55;;;16.30;38.20;15.30;101741.00;;;;5053919;28;20041;-64
2022/03/03 01:10:46;;;;;;;7.45;5.93;;;16.20;38.20;15.30;101732.00;;;;5059287;28;20184;-64
2022/03/03 01:13:32;;;;;;;8.48;6.28;;;16.20;38.30;15.30;101747.00;;;;5055837;28;20124;-64
2022/03/03 01:16:18;;;;;;;8.90;6.22;;;16.30;38.30;15.30;101737.00;;;;5060007;28;20044;-64
2022/03/03 01:19:05;;;;;;;9.60;6.25;;;16.20;38.30;15.30;101737.00;;;;5054735;28;20037;-64
2022/03/03 01:21:51;;;;;;;9.02;6.15;;;16.20;38.30;15.30;101745.00;;;;5046401;28;20041;-64
2022/03/03 01:24:37;;;;;;;8.73;6.45;;;16.10;38.20;15.30;101741.00;;;;5046201;28;20036;-64
2022/03/03 01:27:24;;;;;;;8.63;5.50;;;16.20;38.30;15.30;101738.00;;;;5060200;28;20073;-64
2022/03/03 01:30:11;;;;;;;9.18;6.28;;;16.10;38.30;15.30;101736.00;;;;5043242;28;20044;-64
2022/03/03 01:32:57;;;;;;;9.68;6.47;;;16.10;38.20;15.20;101735.00;;;;5045123;28;20387;-64
2022/03/03 01:35:43;;;;;;;9.45;6.20;;;16.10;38.30;15.20;101739.00;;;;5057770;28;20039;-64
2022/03/03 01:38:29;;;;;;;10.82;7.00;;;16.10;38.30;15.20;101729.00;;;;5061925;28;20490;-64
2022/03/03 01:41:15;;;;;;;9.20;6.07;;;16.10;38.30;15.20;101723.00;;;;5059747;28;20044;-64
2022/03/03 01:44:01;;;;;;;7.38;5.55;;;16.10;38.30;15.20;101727.00;;;;5059640;28;20041;-64
2022/03/03 01:46:49;;;;;;;9.15;6.10;;;16.10;38.40;15.20;101733.00;;;;5058854;28;20039;-64
2022/03/03 01:49:35;;;;;;;10.40;5.95;;;16.30;38.40;15.20;101730.00;;;;5053690;28;20086;-65
2022/03/03 01:52:21;;;;;;;8.48;5.90;;;16.00;38.30;15.20;101725.00;;;;5057170;28;20045;-64
2022/03/03 01:55:09;;;;;;;7.65;5.82;;;16.00;38.30;15.20;101727.00;;;;5046449;28;20037;-64
2022/03/03 01:57:55;;;;;;;9.57;6.25;;;16.00;38.40;15.10;101727.00;;;;5042860;28;20041;-64
2022/03/03 02:00:42;;;;;;;9.27;6.30;;;16.00;38.40;15.10;101730.00;;;;5048915;28;20401;-64
2022/03/03 02:03:28;;;;;;;9.00;5.90;;;16.00;38.40;15.10;101726.00;;;;5045030;28;20509;-64
2022/03/03 02:06:14;;;;;;;10.48;6.43;;;16.00;38.40;15.10;101719.00;;;;5056013;28;20045;-64
2022/03/03 02:09:00;;;;;;;8.55;5.45;;;16.00;38.50;15.10;101715.00;;;;5061158;28;20397;-64
2022/03/03 02:11:46;;;;;;;9.18;5.47;;;16.00;38.40;15.10;101711.00;;;;5045813;28;20127;-64
2022/03/03 02:14:59;;;;;;;8.23;5.88;;;15.90;38.40;15.10;101723.00;;;;5059009;28;20124;-64
2022/03/03 02:17:45;;;;;;;9.15;6.53;;;15.90;38.40;15.10;101720.00;;;;5044804;28;20039;-64
2022/03/03 02:20:31;;;;;;;9.30;6.15;;;15.90;38.40;15.10;101715.00;;;;5044469;28;20056;-64
2022/03/03 02:23:18;;;;;;;9.07;6.47;;;15.90;38.40;15.00;101706.00;;;;5062451;28;20120;-64
2022/03/03 02:26:05;;;;;;;7.32;6.10;;;15.90;38.50;15.00;101689.00;;;;5056482;28;20033;-64
2022/03/03 02:28:52;;;;;;;8.75;6.22;;;15.90;38.50;15.00;101695.00;;;;5031989;28;20068;-64
2022/03/03 02:31:39;;;;;;;9.23;6.17;;;15.90;38.50;15.00;101693.00;;;;5064532;28;20045;-64
2022/03/03 02:34:25;;;;;;;9.02;6.57;;;15.90;38.50;15.00;101686.00;;;;5059621;28;20763;-64
2022/03/03 02:37:11;;;;;;;8.63;6.03;;;15.90;38.50;15.00;101699.00;;;;5046789;28;20049;-64
2022/03/03 02:39:57;;;;;;;10.60;6.93;;;15.80;38.50;15.00;101694.00;;;;5055852;28;20094;-64
2022/03/03 02:42:43;;;;;;;8.55;5.97;;;15.80;38.50;15.00;101691.00;;;;5047879;28;20041;-64
2022/03/03 02:45:29;;;;;;;11.13;6.93;;;15.80;38.50;15.00;101687.00;;;;5058521;28;20037;-64
2022/03/03 02:48:15;;;;;;;8.82;6.22;;;15.90;38.50;15.00;101694.00;;;;5058634;28;20457;-64
2022/03/03 02:51:02;;;;;;;8.45;5.93;;;15.80;38.50;15.00;101683.00;;;;5065416;28;20054;-64
2022/03/03 02:53:48;;;;;;;10.50;6.47;;;15.80;38.50;15.00;101684.00;;;;5063436;28;20040;-64
2022/03/03 02:57:53;;;;;;;9.88;6.88;;;15.80;38.50;15.00;101683.00;;;;5042416;28;20991;-64
2022/03/03 02:59:40;;;;;;;9.73;6.47;;;15.80;38.50;15.00;101669.00;;;;5059046;28;20119;-64
2022/03/03 03:02:26;;;;;;;9.43;5.47;;;15.80;38.50;15.00;101668.00;;;;5046100;28;20041;-64
2022/03/03 03:05:12;;;;;;;8.70;6.28;;;15.90;38.60;14.90;101660.00;;;;5062182;28;20048;-64
2022/03/03 03:07:59;;;;;;;6.93;5.60;;;15.80;38.50;14.90;101656.00;;;;5051671;28;20028;-64
2022/03/03 03:10:45;;;;;;;8.65;5.97;;;15.80;38.60;14.90;101659.00;;;;5062628;28;20375;-64
2022/03/03 03:13:31;;;;;;;9.70;6.53;;;15.70;38.50;14.90;101662.00;;;;5035035;28;20627;-64
2022/03/03 03:16:17;;;;;;;11.02;6.30;;;15.70;38.50;14.90;101653.00;;;;5059055;28;20477;-64
2022/03/03 03:19:03;;;;;;;9.27;6.40;;;15.80;38.60;14.90;101660.00;;;;5064613;28;20040;-64
2022/03/03 03:21:49;;;;;;;8.30;6.40;;;15.80;38.60;14.90;101657.00;;;;5059234;28;20056;-64
2022/03/03 03:24:35;;;;;;;8.23;6.03;;;15.80;38.60;14.90;101653.00;;;;5065342;28;20093;-64
2022/03/03 03:27:22;;;;;;;9.18;6.63;;;15.70;38.60;14.90;101643.00;;;;5050683;28;20040;-64
2022/03/03 03:30:10;;;;;;;9.07;6.43;;;15.70;38.60;14.90;101644.00;;;;5061836;28;20323;-64
2022/03/03 03:32:56;;;;;;;10.52;6.65;;;15.70;38.60;14.90;101638.00;;;;5056371;28;20371;-64
2022/03/03 03:35:42;;;;;;;8.65;6.10;;;15.80;38.70;14.90;101644.00;;;;5059566;28;20040;-64
2022/03/03 03:38:28;;;;;;;8.50;6.25;;;15.70;38.60;14.90;101636.00;;;;5062951;28;20036;-64
2022/03/03 03:41:14;;;;;;;7.80;6.05;;;15.70;38.70;14.80;101625.00;;;;5060601;28;20044;-64
2022/03/03 03:44:00;;;;;;;8.32;6.28;;;15.70;38.60;14.80;101635.00;;;;5062312;28;20525;-64
2022/03/03 03:46:46;;;;;;;8.40;5.90;;;15.70;38.70;14.80;101636.00;;;;5062489;28;20039;-64
2022/03/03 03:49:33;;;;;;;7.75;6.13;;;15.70;38.70;14.80;101631.00;;;;5064316;28;20119;-64
2022/03/03 03:52:19;;;;;;;9.48;6.10;;;15.70;38.70;14.80;101640.00;;;;5059042;28;20135;-64
2022/03/03 03:55:06;;;;;;;8.95;6.40;;;15.70;38.70;14.80;101641.00;;;;5063951;28;20405;-64
2022/03/03 03:57:52;;;;;;;7.55;5.95;;;15.60;38.70;14.80;101638.00;;;;5038164;28;20037;-64
2022/03/03 04:00:39;;;;;;;7.57;5.75;;;15.60;38.70;14.80;101641.00;;;;5059070;28;20043;-64
2022/03/03 04:03:25;;;;;;;8.27;5.88;;;15.60;38.80;14.80;101642.00;;;;5050384;28;20431;-64
2022/03/03 04:06:11;;;;;;;8.05;6.20;;;15.60;38.80;14.80;101651.00;;;;5055773;28;20037;-64
2022/03/03 04:08:57;;;;;;;6.90;5.45;;;15.60;38.70;14.80;101645.00;;;;5057690;28;20044;-64
2022/03/03 04:11:43;;;;;;;9.02;6.57;;;15.60;38.80;14.80;101648.00;;;;5058776;28;20037;-64
2022/03/03 04:14:30;;;;;;;8.15;5.60;;;15.60;38.80;14.80;101651.00;;;;5059623;28;20045;-64
2022/03/03 04:17:16;;;;;;;8.20;6.00;;;15.60;38.70;14.80;101648.00;;;;5065725;28;20115;-64
2022/03/03 04:20:04;;;;;;;9.18;6.45;;;15.60;38.70;14.80;101656.00;;;;5068728;28;20028;-64
2022/03/03 04:22:50;;;;;;;8.45;6.03;;;15.60;38.80;14.70;101660.00;;;;5037900;28;20716;-64
2022/03/03 04:25:36;;;;;;;8.85;6.40;;;15.60;38.70;14.80;101670.00;;;;5068573;28;20047;-64
2022/03/03 04:28:25;;;;;;;7.80;5.72;;;15.60;38.70;14.70;101657.00;;;;5065484;28;20055;-64
2022/03/03 04:31:11;;;;;;;9.25;6.30;;;15.70;38.80;14.70;101653.00;;;;5065936;28;20047;-64
2022/03/03 04:33:58;;;;;;;9.30;6.50;;;15.60;38.80;14.70;101654.00;;;;5062358;28;20416;-64
2022/03/03 04:36:44;;;;;;;9.48;6.32;;;15.60;38.80;14.70;101652.00;;;;5056310;28;20032;-64
2022/03/03 04:39:30;;;;;;;8.50;6.20;;;15.60;38.80;14.70;101653.00;;;;5045796;28;20040;-64
2022/03/03 04:42:16;;;;;;;7.80;5.82;;;15.60;38.80;14.70;101658.00;;;;5058823;28;20052;-64
2022/03/03 04:45:03;;;;;;;9.23;6.25;;;15.50;38.70;14.70;101657.00;;;;5057794;28;20379;-64
2022/03/03 04:47:50;;;;;;;9.83;6.33;;;15.50;38.70;14.70;101663.00;;;;5053638;28;20032;-64
2022/03/03 04:50:36;;;;;;;7.57;5.70;;;15.60;38.80;14.70;101655.00;;;;5049969;28;20040;-64
2022/03/03 04:53:22;;;;;;;9.10;6.53;;;15.50;38.70;14.70;101659.00;;;;5060033;28;20044;-64
2022/03/03 04:56:08;;;;;;;8.27;6.05;;;15.70;38.80;14.70;101655.00;;;;5061345;28;20046;-64
2022/03/03 04:58:54;;;;;;;8.65;5.95;;;15.50;38.70;14.70;101657.00;;;;5063779;28;20554;-64
2022/03/03 05:01:40;;;;;;;8.63;6.10;;;15.50;38.70;14.70;101656.00;;;;5056667;28;20047;-64
2022/03/03 05:04:26;;;;;;;10.75;6.50;;;15.50;38.70;14.70;101651.00;;;;5050478;28;20044;-64
2022/03/03 05:07:12;;;;;;;6.93;5.30;;;15.50;38.70;14.70;101647.00;;;;5059264;28;20043;-64
2022/03/03 05:09:58;;;;;;;10.43;6.57;;;15.50;38.70;14.70;101636.00;;;;5068953;28;20371;-64
2022/03/03 05:12:44;;;;;;;11.80;6.68;;;15.50;38.70;14.70;101637.00;;;;5053143;28;20073;-64
2022/03/03 05:15:30;;;;;;;9.13;6.32;;;15.50;39.40;14.70;101623.00;;;;5048886;28;20045;-64
2022/03/03 05:18:16;;;;;;;9.70;6.35;;;15.50;38.70;14.70;101620.00;;;;5050480;28;20048;-64
2022/03/03 05:21:02;;;;;;;8.50;6.05;;;15.50;38.70;14.60;101627.00;;;;5056990;28;20056;-64
2022/03/03 05:23:48;;;;;;;9.90;6.45;;;15.50;38.70;14.60;101616.00;;;;5061422;28;20035;-64
2022/03/03 05:26:34;;;;;;;7.75;6.25;;;15.50;38.70;14.60;101617.00;;;;5044195;28;20037;-64
2022/03/03 05:29:20;;;;;;;9.27;6.70;;;15.50;38.70;14.60;101615.00;;;;5045422;28;20468;-64
2022/03/03 05:32:07;;;;;;;9.68;7.03;;;15.50;38.70;14.60;101613.00;;;;5055224;28;20044;-64
2022/03/03 05:34:53;;;;;;;8.00;6.40;;;15.50;38.70;14.60;101607.00;;;;5056506;28;20047;-64
2022/03/03 05:37:39;;;;;;;8.65;6.53;;;15.50;38.70;14.60;101609.00;;;;5060895;28;20049;-64
2022/03/03 05:40:25;;;;;;;8.25;6.22;;;15.50;38.70;14.60;101607.00;;;;5046248;28;20040;-64
2022/03/03 05:43:11;;;;;;;9.27;6.93;;;15.50;38.70;14.60;101616.00;;;;5058890;28;20139;-64
2022/03/03 05:45:57;;;;;;;10.30;6.57;;;15.50;38.70;14.60;101599.00;;;;5046234;28;20084;-64
2022/03/03 05:48:43;;;;;;;7.40;5.72;;;15.40;38.70;14.60;101601.00;;;;5054965;28;20040;-64
2022/03/03 05:51:31;;;;;;;8.98;6.22;;;15.50;38.70;14.60;101609.00;;;;5059245;28;20044;-64
2022/03/03 05:54:17;;;;;;;10.40;6.83;;;15.50;38.70;14.60;101608.00;;;;5056182;28;20041;-64
2022/03/03 05:57:06;;;;;;;10.50;6.78;;;15.40;38.60;14.60;101614.00;;;;5065619;28;20033;-64
2022/03/03 05:59:53;;;;;;;9.48;6.57;;;15.40;38.70;14.60;101607.00;;;;5046415;28;20098;-64
2022/03/03 06:02:51;;;;;;;9.45;6.70;;;15.40;38.60;14.60;101623.00;;;;5044933;28;20482;-64
2022/03/03 06:05:37;;;;;;;10.07;7.10;;;15.50;38.70;14.60;101628.00;;;;5063505;28;20195;-64
2022/03/03 06:08:26;;;;;;;9.88;7.45;;;15.50;38.70;14.60;101623.00;;;;5043213;28;20068;-64
2022/03/03 06:11:14;;;;;;;9.23;6.88;;;15.40;38.60;14.50;101627.00;;;;5045902;28;20051;-64
2022/03/03 06:14:06;;;;;;;8.93;6.57;;;15.40;38.60;14.50;101628.00;;;;5033766;28;20123;-64
2022/03/03 06:16:52;;;;;;;9.90;6.97;;;15.40;38.60;14.50;101628.00;;;;5056832;28;20087;-64
2022/03/03 06:19:42;;;;;;;10.40;6.70;;;15.40;38.60;14.50;101632.00;;;;5048801;28;20466;-64
2022/03/03 06:22:28;;;;;;;9.05;6.57;;;15.40;38.60;14.50;101639.00;;;;5043205;28;20064;-64
2022/03/03 06:25:14;;;;;;;11.18;7.45;;;15.40;38.70;14.50;101634.00;;;;5066674;28;20040;-64
2022/03/03 06:28:01;;;;;;;10.35;6.88;;;15.40;38.60;14.50;101644.00;;;;5054227;28;20387;-64
2022/03/03 06:30:47;;;;;;;9.98;6.80;;;15.40;38.70;14.50;101648.00;;;;5048560;28;20526;-64
2022/03/03 06:33:34;;;;;;;9.57;6.90;;;15.40;38.70;14.50;101640.00;;;;5062513;28;20048;-64
2022/03/03 06:36:20;;;;;;;8.85;6.15;;;15.40;38.70;14.50;101647.00;;;;5053228;28;20036;-64
2022/03/03 06:39:06;;;;;;;10.18;6.30;;;15.30;38.60;14.50;101659.00;;;;5062439;28;20037;-63
2022/03/03 06:41:52;;;;;;;9.80;6.97;;;15.30;38.60;14.50;101660.00;;;;5063108;28;20033;-64
2022/03/03 06:44:38;;;;;;;9.00;6.88;;;15.30;38.60;14.50;101668.00;;;;5046342;28;20120;-64
2022/03/03 06:47:24;;;;;;;10.52;7.00;;;15.30;38.70;14.50;101661.00;;;;5061374;28;20045;-64
2022/03/03 06:50:10;;;;;;;9.23;6.70;;;15.30;38.70;14.50;101658.00;;;;5052057;28;20528;-64
2022/03/03 06:52:56;;;;;;;9.02;6.75;;;15.30;38.60;14.50;101670.00;;;;5064612;28;20047;-64
2022/03/03 06:55:42;;;;;;;13.27;7.00;;;15.30;38.70;14.40;101657.00;;;;5052894;28;20486;-64
2022/03/03 06:58:29;;;;;;;11.43;6.95;;;15.30;38.70;14.40;101662.00;;;;5052380;28;20048;-64
2022/03/03 07:01:15;;;;;;;8.93;7.07;;;15.30;38.70;14.40;101657.00;;;;5051455;28;20044;-64
2022/03/03 07:04:01;;;;;;;9.23;6.65;;;15.30;38.70;14.40;101659.00;;;;5064135;28;20040;-64
2022/03/03 07:06:48;;;;;;;9.38;6.70;;;15.30;38.70;14.40;101662.00;;;;5044947;28;20482;-64
2022/03/03 07:09:34;;;;;;;11.23;6.88;;;15.30;38.70;14.40;101665.00;;;;5052380;28;20040;-64
2022/03/03 07:12:21;;;;;;;9.90;7.00;;;15.30;38.70;14.40;101674.00;;;;5065625;28;20055;-64
2022/03/03 07:15:08;;;;;;;8.70;6.55;;;15.30;38.70;14.40;101671.00;;;;5052692;28;20070;-65
2022/03/03 07:18:12;;;;;;;8.95;6.63;;;15.30;38.70;14.40;101666.00;;;;5067422;28;20094;-65
2022/03/03 07:21:10;;;;;;;9.48;7.13;;;15.30;38.70;14.40;101666.00;;;;5051533;28;20045;-64
2022/03/03 07:24:08;;;;;;;8.75;6.47;;;15.30;38.70;14.40;101659.00;;;;5046148;28;20044;-64
2022/03/03 07:26:58;;;;;;;10.45;7.47;;;15.20;38.60;14.40;101667.00;;;;5055814;28;20032;-65
2022/03/03 07:29:44;;;;;;;7.95;6.22;;;15.30;38.70;14.40;101667.00;;;;5049241;28;20040;-64
2022/03/03 07:32:36;;;;;;;10.00;6.95;;;15.30;38.70;14.40;101662.00;;;;5055637;28;20704;-64
2022/03/03 07:35:25;;;;;;;9.95;7.45;;;15.30;38.70;14.40;101676.00;;;;5049163;28;20045;-64
2022/03/03 07:38:19;;;;;;;10.65;6.85;;;15.30;38.70;14.40;101664.00;;;;5047980;28;20410;-64
2022/03/03 07:41:07;;;;;;;11.07;7.40;;;15.20;38.70;14.40;101656.00;;;;5042800;28;20033;-65
2022/03/03 07:43:54;;;;;;;8.90;6.78;;;15.30;38.80;14.40;101662.00;;;;5066227;28;20045;-65
2022/03/03 07:46:40;;;;;;;10.98;6.97;;;15.30;38.80;14.40;101666.00;;;;5061195;28;20289;-64
2022/03/03 07:49:26;;;;;;;9.77;7.13;;;15.30;38.80;14.40;101668.00;;;;5063246;28;20078;-64
2022/03/03 07:52:12;;;;;;;10.05;6.78;;;15.30;38.80;14.40;101665.00;;;;5033313;28;20072;-64
2022/03/03 07:54:58;;;;;;;10.85;7.22;;;15.30;38.80;14.40;101667.00;;;;5057745;28;20037;-64
2022/03/03 07:57:57;;;;;;;8.35;6.47;;;15.30;38.80;14.40;101670.00;;;;5046649;28;20444;-65
2022/03/03 08:00:48;;;;;;;11.65;7.45;;;15.30;38.80;14.40;101677.00;;;;5042482;28;20048;-64
2022/03/03 08:03:35;;;;;;;11.40;7.45;;;15.30;38.80;14.40;101680.00;;;;5047543;28;20044;-64
2022/03/03 08:06:21;;;;;;;10.98;7.55;;;15.30;38.80;14.40;101675.00;;;;5060090;28;20052;-65
2022/03/03 08:09:07;;;;;;;11.13;7.70;;;15.40;38.90;14.40;101670.00;;;;5039680;28;20048;-64
2022/03/03 08:11:53;;;;;;;11.55;7.47;;;15.30;38.90;14.40;101671.00;;;;5026140;28;20049;-64
2022/03/03 08:14:39;;;;;;;10.77;7.53;;;15.30;38.80;14.50;101666.00;;;;5060153;28;20048;-65
2022/03/03 08:17:26;;;;;;;11.02;7.13;;;15.30;38.90;14.50;101674.00;;;;5058502;28;20036;-64
2022/03/03 08:20:12;;;;;;;9.55;6.78;;;15.30;38.80;14.50;101677.00;;;;5057840;28;20545;-64
2022/03/03 08:22:59;;;;;;;10.75;7.28;;;15.50;38.90;14.50;101663.00;;;;5057546;28;20327;-64
2022/03/03 08:25:47;;;;;;;9.63;6.95;;;15.40;38.80;14.50;101670.00;;;;5042168;28;20028;-64
2022/03/03 08:28:33;;;;;;;11.10;7.43;;;15.40;38.80;14.50;101666.00;;;;5047371;28;20048;-64
2022/03/03 08:31:28;;;;;;;8.68;6.70;;;15.50;38.90;14.50;101670.00;;;;5059434;28;20064;-65
2022/03/03 08:34:39;;;;;;;9.85;6.95;;;15.50;38.90;14.50;101676.00;;;;5037678;28;20489;-64
2022/03/03 08:37:39;;;;;;;10.15;7.20;;;15.40;38.80;14.50;101666.00;;;;5036351;28;20048;-65
2022/03/03 08:40:25;;;;;;;11.93;7.35;;;15.50;38.80;14.50;101666.00;;;;5049615;28;20110;-64
2022/03/03 08:43:12;;;;;;;12.27;7.20;;;15.50;38.80;14.60;101664.00;;;;5062941;28;20048;-65
2022/03/03 08:46:04;;;;;;;10.00;6.38;;;15.50;38.70;14.60;101672.00;;;;5034442;28;20443;-64
2022/03/03 08:48:50;;;;;;;9.38;6.43;;;15.50;38.70;14.60;101676.00;;;;5047699;28;20127;-64
2022/03/03 08:51:37;;;;;;;9.85;6.65;;;15.60;38.80;14.60;101678.00;;;;5045042;28;20066;-64
2022/03/03 08:54:24;;;;;;;8.82;6.20;;;15.60;38.70;14.60;101683.00;;;;5061986;28;20040;-64
2022/03/03 08:57:10;;;;;;;8.68;6.30;;;15.60;38.60;14.70;101686.00;;;;5048298;28;20539;-64
2022/03/03 08:59:56;;;;;;;9.45;6.28;;;15.60;38.60;14.70;101682.00;;;;5055261;28;20052;-64
2022/03/03 09:02:43;;;;;;;9.65;6.50;;;15.70;38.60;14.70;101685.00;;;;5056027;28;20098;-64
2022/03/03 09:05:32;;;;;;;8.18;6.00;;;15.70;38.50;14.70;101674.00;;;;5045449;28;20036;-64
2022/03/03 09:08:18;;;;;;;8.20;6.05;;;15.70;38.40;14.70;101680.00;;;;5058781;28;20041;-64
2022/03/03 09:11:04;;;;;;;7.80;5.53;;;15.70;38.40;14.70;101666.00;;;;5057160;28;20040;-65
2022/03/03 09:13:50;;;;;;;9.80;6.05;;;15.70;38.30;14.70;101669.00;;;;5063093;28;20082;-64
2022/03/03 09:16:36;;;;;;;8.32;5.65;;;15.80;38.30;14.80;101677.00;;;;5060929;28;20081;-65
2022/03/03 09:19:22;;;;;;;7.88;5.57;;;15.80;38.30;14.80;101669.00;;;;5048167;28;20048;-64
2022/03/03 09:22:08;;;;;;;10.75;6.45;;;15.80;38.20;14.80;101668.00;;;;5062015;28;20502;-65
2022/03/03 09:24:55;;;;;;;8.38;5.75;;;15.80;38.20;14.80;101660.00;;;;5055914;28;20036;-64
2022/03/03 09:27:41;;;;;;;7.15;5.28;;;15.80;38.10;14.80;101672.00;;;;5047488;28;20036;-64
2022/03/03 09:30:28;;;;;;;10.43;5.95;;;15.80;38.10;14.80;101661.00;;;;5059067;28;20032;-65
2022/03/03 09:33:14;;;;;;;8.25;5.90;;;15.90;38.10;14.80;101658.00;;;;5059650;28;20044;-64
2022/03/03 09:36:00;;;;;;;8.23;6.03;;;15.90;38.20;14.80;101663.00;;;;5060644;28;20045;-64
2022/03/03 09:38:46;;;;;;;7.90;5.18;;;15.90;38.00;14.90;101651.00;;;;5063965;28;20649;-64
2022/03/03 09:41:32;;;;;;;8.15;5.70;;;15.90;38.00;14.90;101649.00;;;;5056683;28;20041;-64
2022/03/03 09:44:28;;;;;;;11.35;6.20;;;15.90;37.90;14.90;101657.00;;;;5043544;28;20037;-64
2022/03/03 09:47:17;;;;;;;7.40;5.40;;;16.00;37.90;14.90;101657.00;;;;5064590;28;20064;-64
2022/03/03 09:50:05;;;;;;;8.10;5.85;;;16.00;37.90;14.90;101650.00;;;;5041284;28;20033;-64
2022/03/03 09:52:52;;;;;;;;;;;15.90;37.90;14.90;101647.00;;;;5035413;28;20094;-65
2022/03/03 09:55:38;;;;;;;10.65;5.82;;;16.00;38.10;14.90;101643.00;;;;5058935;28;20373;-64
2022/03/03 09:58:25;;;;;;;13.60;6.10;;;16.00;38.00;14.90;101639.00;;;;5063185;28;20041;-64
2022/03/03 10:01:11;;;;;;;8.48;5.70;;;16.00;38.00;15.00;101631.00;;;;5060333;28;20048;-65
2022/03/03 10:03:58;;;;;;;10.88;6.00;;;16.00;38.00;15.00;101639.00;;;;5056666;28;20041;-64
2022/03/03 10:06:44;;;;;;;11.07;6.45;;;16.00;38.00;15.00;101640.00;;;;5063053;28;20037;-64
2022/03/03 10:09:30;;;;;;;12.20;5.97;;;16.10;38.00;15.00;101642.00;;;;5065703;28;20032;-64
2022/03/03 10:12:16;;;;;;;11.93;6.00;;;16.10;38.00;15.00;101641.00;;;;5043886;28;20040;-64
2022/03/03 10:15:03;;;;;;;13.32;6.43;;;16.10;38.00;15.10;101636.00;;;;5057392;28;20486;-64
2022/03/03 10:17:49;;;;;;;8.27;5.30;;;16.10;38.00;15.10;101630.00;;;;5060399;28;20119;-64
2022/03/03 10:20:58;;;;;;;10.25;5.97;;;16.10;38.00;15.10;101638.00;;;;5034701;28;20047;-64
2022/03/03 10:23:44;;;;;;;14.57;6.05;;;16.10;37.90;15.10;101636.00;;;;5066180;28;20516;-64
2022/03/03 10:26:40;;;;;;;19.33;6.15;;;16.20;37.80;15.10;101639.00;;;;5052864;28;20070;-64
2022/03/03 10:29:26;;;;;;;16.55;5.82;;;16.20;37.80;15.20;101648.00;;;;5064856;28;20093;-64
2022/03/03 10:32:23;;;;;;;15.05;5.68;;;16.20;37.60;15.20;101632.00;;;;5033446;28;20512;-65
2022/03/03 10:35:33;;;;;;;12.88;5.93;;;16.30;37.60;15.20;101633.00;;;;5046356;28;20049;-65
2022/03/03 10:38:19;;;;;;;9.00;5.28;;;16.30;37.60;15.20;101641.00;;;;5060781;28;20375;-64
2022/03/03 10:41:08;;;;;;;14.65;5.78;;;16.30;37.50;15.20;101640.00;;;;5056418;28;20040;-65
2022/03/03 10:43:54;;;;;;;11.07;5.68;;;16.30;37.50;15.20;101648.00;;;;5043416;28;20063;-64
2022/03/03 10:47:21;;;;;;;11.40;5.28;;;16.30;37.50;15.20;101638.00;;;;5049307;28;20232;-64
2022/03/03 10:50:07;;;;;;;9.25;5.38;;;16.30;37.40;15.20;101643.00;;;;5060702;28;20063;-64
2022/03/03 10:52:53;;;;;;;7.53;4.82;;;16.30;37.40;15.20;101650.00;;;;5060264;28;20037;-64
2022/03/03 10:55:39;;;;;;;9.15;5.00;;;16.30;37.40;15.20;101637.00;;;;5056974;28;20063;-64
2022/03/03 10:58:58;;;;;;;9.05;4.97;;;16.30;37.40;15.20;101645.00;;;;5066670;28;20379;-64
2022/03/03 11:01:45;;;;;;;7.38;4.97;;;16.30;37.30;15.20;101650.00;;;;5054529;28;20049;-64
2022/03/03 11:04:31;;;;;;;10.05;5.20;;;16.30;37.40;15.20;101647.00;;;;5047993;28;20064;-64
2022/03/03 11:07:18;;;;;;;11.50;5.28;;;16.30;37.30;15.20;101641.00;;;;5040472;28;20037;-65
2022/03/03 11:10:06;;;;;;;9.48;5.00;;;16.30;37.40;15.20;101640.00;;;;5031081;28;20037;-64
2022/03/03 11:12:52;;;;;;;8.93;4.97;;;16.30;37.30;15.20;101640.00;;;;5046053;28;20115;-64
2022/03/03 11:15:38;;;;;;;8.80;4.82;;;16.30;37.30;15.20;101637.00;;;;5058588;28;20045;-64
2022/03/03 11:18:24;;;;;;;7.93;4.63;;;16.30;37.30;15.20;101631.00;;;;5051557;28;20037;-64
2022/03/03 11:21:10;;;;;;;7.90;4.65;;;16.40;37.40;15.20;101639.00;;;;5046202;28;20059;-64
2022/03/03 11:23:58;;;;;;;8.45;5.18;;;16.30;37.30;15.20;101630.00;;;;5066772;28;20119;-65
2022/03/03 11:26:45;;;;;;;8.98;5.15;;;16.30;37.30;15.20;101626.00;;;;5064568;28;20145;-66
2022/03/03 11:29:32;;;;;;;7.35;4.53;;;16.30;37.30;15.20;101623.00;;;;5050170;28;20076;-64
2022/03/03 11:32:18;;;;;;;8.35;4.53;;;16.30;37.30;15.20;101620.00;;;;5063837;28;20453;-64
2022/03/03 11:35:10;;;;;;;7.13;4.47;;;16.30;37.30;15.20;101629.00;;;;5048636;28;20048;-64
2022/03/03 11:37:56;;;;;;;7.40;4.57;;;16.30;37.30;15.20;101621.00;;;;5035670;28;20033;-64
2022/03/03 11:40:57;;;;;;;8.55;4.93;;;16.30;37.30;15.20;101622.00;;;;5059590;28;20033;-64
2022/03/03 11:44:07;;;;;;;4.90;4.07;;;16.30;37.20;15.20;101618.00;;;;5057925;28;20123;-64
2022/03/03 11:46:53;;;;;;;7.07;4.28;;;16.30;37.30;15.20;101609.00;;;;5062692;28;20032;-64
2022/03/03 11:49:39;;;;;;;6.13;4.10;;;16.30;37.30;15.20;101613.00;;;;5059972;28;20043;-64
2022/03/03 11:52:25;;;;;;;6.72;4.75;;;16.30;37.40;15.20;101619.00;;;;5044522;28;20724;-64
2022/03/03 11:55:37;;;;;;;5.85;4.97;;;16.30;37.40;15.30;101615.00;;;;5051892;28;20052;-64
2022/03/03 11:58:29;;;;;;;6.43;4.40;;;16.30;37.30;15.20;101604.00;;;;5051399;28;20146;-64
2022/03/03 12:01:15;;;;;;;6.82;4.90;;;16.30;37.30;15.30;101602.00;;;;5058646;28;20279;-64
2022/03/03 12:04:03;;;;;;;7.13;4.75;;;16.30;37.30;15.30;101600.00;;;;5061024;28;20033;-64
2022/03/03 12:06:49;;;;;;;;;;;16.30;37.30;15.30;101602.00;;;;5067998;28;20040;-64
2022/03/03 12:09:39;;;;;;;5.70;3.83;;;16.40;37.50;15.30;101599.00;;;;5062211;28;19912;-64
2022/03/03 12:12:29;;;;;;;5.38;4.40;;;16.40;37.30;15.30;101595.00;;;;5045295;28;20037;-65
2022/03/03 12:15:15;;;;;;;6.18;4.60;;;16.40;37.20;15.30;101604.00;;;;5044464;28;20036;-64